sensor_id;sensor_type;location;lat;lon;timestamp;temperature;humidity
51914;DHT22;37940;53.002;6.930;2023-04-02T00:01:59;3.90;99.90
51914;DHT22;37940;53.002;6.930;2023-04-02T00:04:41;3.90;99.90
51914;DHT22;37940;53.002;6.930;2023-04-02T00:07:30;4.30;99.90
51914;DHT22;37940;53.002;6.930;2023-04-02T00:09:57;3.70;99.90
51914;DHT22;37940;53.002;6.930;2023-04-02T00:12:23;3.80;99.90
51914;DHT22;37940;53.002;6.930;2023-04-02T00:14:52;4.30;99.90
51914;DHT22;37940;53.002;6.930;2023-04-02T00:17:21;3.60;99.90
51914;DHT22;37940;53.002;6.930;2023-04-02T00:22:18;3.60;99.90
51914;DHT22;37940;53.002;6.930;2023-04-02T00:24:45;4.00;99.90
51914;DHT22;37940;53.002;6.930;2023-04-02T00:27:13;4.50;99.90
51914;DHT22;37940;53.002;6.930;2023-04-02T00:29:53;3.50;99.90
51914;DHT22;37940;53.002;6.930;2023-04-02T00:32:29;3.50;99.90
51914;DHT22;37940;53.002;6.930;2023-04-02T00:34:56;4.00;99.90
51914;DHT22;37940;53.002;6.930;2023-04-02T00:37:25;3.70;99.90
51914;DHT22;37940;53.002;6.930;2023-04-02T00:40:06;3.50;99.90
51914;DHT22;37940;53.002;6.930;2023-04-02T00:42:36;3.20;99.90
51914;DHT22;37940;53.002;6.930;2023-04-02T00:45:09;3.10;99.90
51914;DHT22;37940;53.002;6.930;2023-04-02T00:47:43;3.00;99.90
51914;DHT22;37940;53.002;6.930;2023-04-02T00:52:44;2.70;99.90
51914;DHT22;37940;53.002;6.930;2023-04-02T00:55:38;2.60;99.90
51914;DHT22;37940;53.002;6.930;2023-04-02T01:00:49;2.40;99.90
51914;DHT22;37940;53.002;6.930;2023-04-02T01:06:07;2.40;99.90
51914;DHT22;37940;53.002;6.930;2023-04-02T01:14:36;2.30;99.90
51914;DHT22;37940;53.002;6.930;2023-04-02T01:17:26;2.10;99.90
51914;DHT22;37940;53.002;6.930;2023-04-02T01:28:15;1.80;99.90
51914;DHT22;37940;53.002;6.930;2023-04-02T01:30:50;1.80;99.90
51914;DHT22;37940;53.002;6.930;2023-04-02T01:33:18;2.70;99.90
51914;DHT22;37940;53.002;6.930;2023-04-02T01:35:49;1.80;99.90
51914;DHT22;37940;53.002;6.930;2023-04-02T01:38:23;1.70;99.90
51914;DHT22;37940;53.002;6.930;2023-04-02T01:46:32;1.60;99.90
51914;DHT22;37940;53.002;6.930;2023-04-02T01:49:08;1.50;99.90
51914;DHT22;37940;53.002;6.930;2023-04-02T01:51:39;1.50;99.90
51914;DHT22;37940;53.002;6.930;2023-04-02T01:54:06;1.50;99.90
51914;DHT22;37940;53.002;6.930;2023-04-02T01:56:33;1.40;99.90
51914;DHT22;37940;53.002;6.930;2023-04-02T01:59:00;1.40;99.90
51914;DHT22;37940;53.002;6.930;2023-04-02T02:01:34;2.10;99.90
51914;DHT22;37940;53.002;6.930;2023-04-02T02:04:01;1.40;99.90
51914;DHT22;37940;53.002;6.930;2023-04-02T02:06:27;1.30;99.90
51914;DHT22;37940;53.002;6.930;2023-04-02T02:09:04;1.30;99.90
51914;DHT22;37940;53.002;6.930;2023-04-02T02:11:32;2.40;99.90
51914;DHT22;37940;53.002;6.930;2023-04-02T02:14:07;1.20;99.90
51914;DHT22;37940;53.002;6.930;2023-04-02T02:16:37;1.40;99.90
51914;DHT22;37940;53.002;6.930;2023-04-02T02:19:30;1.20;99.90
51914;DHT22;37940;53.002;6.930;2023-04-02T02:22:20;1.20;99.90
51914;DHT22;37940;53.002;6.930;2023-04-02T02:24:48;1.10;99.90
51914;DHT22;37940;53.002;6.930;2023-04-02T02:32:23;1.40;99.90
51914;DHT22;37940;53.002;6.930;2023-04-02T02:34:59;1.00;99.90
51914;DHT22;37940;53.002;6.930;2023-04-02T02:37:35;0.90;99.90
51914;DHT22;37940;53.002;6.930;2023-04-02T02:40:05;1.40;99.90
51914;DHT22;37940;53.002;6.930;2023-04-02T02:42:38;0.90;99.90
51914;DHT22;37940;53.002;6.930;2023-04-02T02:45:10;0.90;99.90
51914;DHT22;37940;53.002;6.930;2023-04-02T02:47:37;0.90;99.90
51914;DHT22;37940;53.002;6.930;2023-04-02T02:50:18;0.90;99.90
51914;DHT22;37940;53.002;6.930;2023-04-02T02:52:49;0.90;99.90
51914;DHT22;37940;53.002;6.930;2023-04-02T02:55:18;0.90;99.90
51914;DHT22;37940;53.002;6.930;2023-04-02T02:57:50;0.80;99.90
51914;DHT22;37940;53.002;6.930;2023-04-02T03:00:18;0.90;99.90
51914;DHT22;37940;53.002;6.930;2023-04-02T03:02:45;0.90;99.90
51914;DHT22;37940;53.002;6.930;2023-04-02T03:05:21;1.00;99.90
51914;DHT22;37940;53.002;6.930;2023-04-02T03:07:50;1.00;99.90
51914;DHT22;37940;53.002;6.930;2023-04-02T03:13:32;1.10;99.90
51914;DHT22;37940;53.002;6.930;2023-04-02T03:16:19;1.10;99.90
51914;DHT22;37940;53.002;6.930;2023-04-02T03:18:51;1.00;99.90
51914;DHT22;37940;53.002;6.930;2023-04-02T03:21:23;1.00;99.90
51914;DHT22;37940;53.002;6.930;2023-04-02T03:23:58;1.10;99.90
51914;DHT22;37940;53.002;6.930;2023-04-02T03:29:36;1.30;99.90
51914;DHT22;37940;53.002;6.930;2023-04-02T03:34:58;1.20;99.90
51914;DHT22;37940;53.002;6.930;2023-04-02T03:37:45;1.10;99.90
51914;DHT22;37940;53.002;6.930;2023-04-02T03:40:19;1.10;99.90
51914;DHT22;37940;53.002;6.930;2023-04-02T03:42:52;1.90;99.90
51914;DHT22;37940;53.002;6.930;2023-04-02T03:45:20;1.10;99.90
51914;DHT22;37940;53.002;6.930;2023-04-02T03:47:51;1.10;99.90
51914;DHT22;37940;53.002;6.930;2023-04-02T03:50:46;1.00;99.90
51914;DHT22;37940;53.002;6.930;2023-04-02T03:53:13;0.90;99.90
51914;DHT22;37940;53.002;6.930;2023-04-02T03:55:40;0.90;99.90
51914;DHT22;37940;53.002;6.930;2023-04-02T03:58:20;1.90;99.90
51914;DHT22;37940;53.002;6.930;2023-04-02T04:03:24;0.70;99.90
51914;DHT22;37940;53.002;6.930;2023-04-02T04:08:50;0.50;99.90
51914;DHT22;37940;53.002;6.930;2023-04-02T04:11:24;0.50;99.90
51914;DHT22;37940;53.002;6.930;2023-04-02T04:14:15;1.30;99.90
51914;DHT22;37940;53.002;6.930;2023-04-02T04:16:52;0.40;99.90
51914;DHT22;37940;53.002;6.930;2023-04-02T04:24:46;0.30;99.90
51914;DHT22;37940;53.002;6.930;2023-04-02T04:27:23;0.30;99.90
51914;DHT22;37940;53.002;6.930;2023-04-02T04:33:09;0.20;99.90
51914;DHT22;37940;53.002;6.930;2023-04-02T04:35:31;0.20;99.90
51914;DHT22;37940;53.002;6.930;2023-04-02T04:38:10;1.00;99.90
51914;DHT22;37940;53.002;6.930;2023-04-02T04:40:48;0.10;99.90
51914;DHT22;37940;53.002;6.930;2023-04-02T04:43:39;0.10;99.90
51914;DHT22;37940;53.002;6.930;2023-04-02T04:46:17;0.10;99.90
51914;DHT22;37940;53.002;6.930;2023-04-02T04:51:41;0.10;99.90
51914;DHT22;37940;53.002;6.930;2023-04-02T04:54:14;0.10;99.90
51914;DHT22;37940;53.002;6.930;2023-04-02T04:56:45;1.10;99.90
51914;DHT22;37940;53.002;6.930;2023-04-02T05:04:35;0.10;99.90
51914;DHT22;37940;53.002;6.930;2023-04-02T05:09:35;0.10;99.90
51914;DHT22;37940;53.002;6.930;2023-04-02T05:14:39;0.90;99.90
51914;DHT22;37940;53.002;6.930;2023-04-02T05:20:01;0.00;99.90
51914;DHT22;37940;53.002;6.930;2023-04-02T05:25:49;0.10;99.90
51914;DHT22;37940;53.002;6.930;2023-04-02T05:28:20;0.10;99.90
51914;DHT22;37940;53.002;6.930;2023-04-02T05:31:07;0.10;99.90
51914;DHT22;37940;53.002;6.930;2023-04-02T05:33:36;0.10;99.90
51914;DHT22;37940;53.002;6.930;2023-04-02T05:36:08;0.20;99.90
51914;DHT22;37940;53.002;6.930;2023-04-02T05:38:43;0.20;99.90
51914;DHT22;37940;53.002;6.930;2023-04-02T05:41:25;0.30;99.90
51914;DHT22;37940;53.002;6.930;2023-04-02T05:44:06;1.50;99.90
51914;DHT22;37940;53.002;6.930;2023-04-02T05:52:22;3.50;99.90
51914;DHT22;37940;53.002;6.930;2023-04-02T05:54:57;4.40;99.90
51914;DHT22;37940;53.002;6.930;2023-04-02T05:57:30;4.80;99.90
51914;DHT22;37940;53.002;6.930;2023-04-02T05:59:59;5.20;99.90
51914;DHT22;37940;53.002;6.930;2023-04-02T06:02:34;5.40;99.90
51914;DHT22;37940;53.002;6.930;2023-04-02T06:07:53;5.30;99.90
51914;DHT22;37940;53.002;6.930;2023-04-02T06:10:32;5.40;99.90
51914;DHT22;37940;53.002;6.930;2023-04-02T06:13:01;5.80;99.90
51914;DHT22;37940;53.002;6.930;2023-04-02T06:15:30;6.50;99.90
51914;DHT22;37940;53.002;6.930;2023-04-02T06:18:14;6.80;99.90
51914;DHT22;37940;53.002;6.930;2023-04-02T06:20:42;6.80;99.90
51914;DHT22;37940;53.002;6.930;2023-04-02T06:23:23;6.90;99.90
51914;DHT22;37940;53.002;6.930;2023-04-02T06:29:03;6.10;99.90
51914;DHT22;37940;53.002;6.930;2023-04-02T06:31:48;5.70;99.90
51914;DHT22;37940;53.002;6.930;2023-04-02T06:34:19;5.40;99.90
51914;DHT22;37940;53.002;6.930;2023-04-02T06:36:46;6.00;99.90
51914;DHT22;37940;53.002;6.930;2023-04-02T06:39:22;6.50;99.90
51914;DHT22;37940;53.002;6.930;2023-04-02T06:42:16;7.00;99.90
51914;DHT22;37940;53.002;6.930;2023-04-02T06:44:43;7.50;99.90
51914;DHT22;37940;53.002;6.930;2023-04-02T06:47:27;7.80;99.90
51914;DHT22;37940;53.002;6.930;2023-04-02T06:50:06;8.10;99.90
51914;DHT22;37940;53.002;6.930;2023-04-02T06:52:47;8.30;99.90
51914;DHT22;37940;53.002;6.930;2023-04-02T06:57:47;7.90;99.90
51914;DHT22;37940;53.002;6.930;2023-04-02T07:00:40;7.50;99.90
51914;DHT22;37940;53.002;6.930;2023-04-02T07:03:08;7.30;99.90
51914;DHT22;37940;53.002;6.930;2023-04-02T07:05:37;7.30;99.90
51914;DHT22;37940;53.002;6.930;2023-04-02T07:08:03;7.30;99.90
51914;DHT22;37940;53.002;6.930;2023-04-02T07:10:29;6.90;99.90
51914;DHT22;37940;53.002;6.930;2023-04-02T07:12:55;6.50;99.90
51914;DHT22;37940;53.002;6.930;2023-04-02T07:15:21;5.70;99.90
51914;DHT22;37940;53.002;6.930;2023-04-02T07:17:49;5.70;99.90
51914;DHT22;37940;53.002;6.930;2023-04-02T07:20:24;5.60;99.90
51914;DHT22;37940;53.002;6.930;2023-04-02T07:22:51;4.70;99.90
51914;DHT22;37940;53.002;6.930;2023-04-02T07:25:17;4.50;99.90
51914;DHT22;37940;53.002;6.930;2023-04-02T07:27:43;4.50;99.90
51914;DHT22;37940;53.002;6.930;2023-04-02T07:30:09;4.80;99.90
51914;DHT22;37940;53.002;6.930;2023-04-02T07:32:35;5.10;99.90
51914;DHT22;37940;53.002;6.930;2023-04-02T07:35:01;5.30;99.90
51914;DHT22;37940;53.002;6.930;2023-04-02T07:37:27;5.40;99.90
51914;DHT22;37940;53.002;6.930;2023-04-02T07:39:53;4.80;99.90
51914;DHT22;37940;53.002;6.930;2023-04-02T07:42:18;4.60;99.90
51914;DHT22;37940;53.002;6.930;2023-04-02T07:44:44;4.60;99.90
51914;DHT22;37940;53.002;6.930;2023-04-02T07:47:12;4.60;99.90
51914;DHT22;37940;53.002;6.930;2023-04-02T07:49:38;4.80;99.90
51914;DHT22;37940;53.002;6.930;2023-04-02T07:52:04;5.00;99.90
51914;DHT22;37940;53.002;6.930;2023-04-02T07:54:29;4.10;99.90
51914;DHT22;37940;53.002;6.930;2023-04-02T07:56:55;4.10;99.90
51914;DHT22;37940;53.002;6.930;2023-04-02T07:59:21;4.60;99.90
51914;DHT22;37940;53.002;6.930;2023-04-02T08:01:50;4.20;99.90
51914;DHT22;37940;53.002;6.930;2023-04-02T08:04:19;4.30;99.90
51914;DHT22;37940;53.002;6.930;2023-04-02T08:06:46;4.30;99.90
51914;DHT22;37940;53.002;6.930;2023-04-02T08:09:13;4.10;99.90
51914;DHT22;37940;53.002;6.930;2023-04-02T08:11:39;4.10;99.90
51914;DHT22;37940;53.002;6.930;2023-04-02T08:14:09;4.20;99.90
51914;DHT22;37940;53.002;6.930;2023-04-02T08:16:49;4.20;99.90
51914;DHT22;37940;53.002;6.930;2023-04-02T08:19:15;4.20;99.90
51914;DHT22;37940;53.002;6.930;2023-04-02T08:21:41;4.10;99.90
51914;DHT22;37940;53.002;6.930;2023-04-02T08:24:07;4.60;99.90
51914;DHT22;37940;53.002;6.930;2023-04-02T08:26:33;4.00;99.90
51914;DHT22;37940;53.002;6.930;2023-04-02T08:28:58;3.90;99.90
51914;DHT22;37940;53.002;6.930;2023-04-02T08:31:24;4.50;99.90
51914;DHT22;37940;53.002;6.930;2023-04-02T08:33:50;3.70;99.90
51914;DHT22;37940;53.002;6.930;2023-04-02T08:36:16;3.70;99.90
51914;DHT22;37940;53.002;6.930;2023-04-02T08:38:43;3.80;99.90
51914;DHT22;37940;53.002;6.930;2023-04-02T08:41:24;3.80;99.90
51914;DHT22;37940;53.002;6.930;2023-04-02T08:47:01;4.00;99.90
51914;DHT22;37940;53.002;6.930;2023-04-02T08:49:31;4.30;99.90
51914;DHT22;37940;53.002;6.930;2023-04-02T08:52:00;4.50;99.90
51914;DHT22;37940;53.002;6.930;2023-04-02T08:54:34;5.00;99.90
51914;DHT22;37940;53.002;6.930;2023-04-02T08:57:35;4.60;99.90
51914;DHT22;37940;53.002;6.930;2023-04-02T09:02:56;4.70;99.90
51914;DHT22;37940;53.002;6.930;2023-04-02T09:05:27;4.50;99.90
51914;DHT22;37940;53.002;6.930;2023-04-02T09:07:56;5.10;99.90
51914;DHT22;37940;53.002;6.930;2023-04-02T09:10:33;4.60;99.90
51914;DHT22;37940;53.002;6.930;2023-04-02T09:13:02;4.70;99.90
51914;DHT22;37940;53.002;6.930;2023-04-02T09:15:34;4.70;99.90
51914;DHT22;37940;53.002;6.930;2023-04-02T09:18:17;4.80;99.90
51914;DHT22;37940;53.002;6.930;2023-04-02T09:20:44;4.40;99.90
51914;DHT22;37940;53.002;6.930;2023-04-02T09:23:21;6.00;99.90
51914;DHT22;37940;53.002;6.930;2023-04-02T09:25:50;5.00;99.90
51914;DHT22;37940;53.002;6.930;2023-04-02T09:28:16;5.10;99.90
51914;DHT22;37940;53.002;6.930;2023-04-02T09:31:15;5.20;99.90
51914;DHT22;37940;53.002;6.930;2023-04-02T09:33:49;5.30;99.90
51914;DHT22;37940;53.002;6.930;2023-04-02T09:36:31;5.40;99.90
51914;DHT22;37940;53.002;6.930;2023-04-02T09:41:34;5.70;99.90
51914;DHT22;37940;53.002;6.930;2023-04-02T09:46:57;5.90;99.90
51914;DHT22;37940;53.002;6.930;2023-04-02T09:49:30;6.10;99.90
51914;DHT22;37940;53.002;6.930;2023-04-02T09:52:27;6.40;99.90
51914;DHT22;37940;53.002;6.930;2023-04-02T09:55:29;6.60;99.90
51914;DHT22;37940;53.002;6.930;2023-04-02T09:58:13;6.70;99.90
51914;DHT22;37940;53.002;6.930;2023-04-02T10:00:48;6.80;99.90
51914;DHT22;37940;53.002;6.930;2023-04-02T10:03:25;7.00;99.90
51914;DHT22;37940;53.002;6.930;2023-04-02T10:06:12;7.10;99.90
51914;DHT22;37940;53.002;6.930;2023-04-02T10:08:41;7.20;99.90
51914;DHT22;37940;53.002;6.930;2023-04-02T10:11:13;7.30;99.90
51914;DHT22;37940;53.002;6.930;2023-04-02T10:14:00;7.40;99.90
51914;DHT22;37940;53.002;6.930;2023-04-02T10:16:39;7.40;99.90
51914;DHT22;37940;53.002;6.930;2023-04-02T10:19:25;7.40;99.90
51914;DHT22;37940;53.002;6.930;2023-04-02T10:21:54;7.60;99.90
51914;DHT22;37940;53.002;6.930;2023-04-02T10:24:20;7.70;99.90
51914;DHT22;37940;53.002;6.930;2023-04-02T10:33:13;7.30;99.90
51914;DHT22;37940;53.002;6.930;2023-04-02T10:38:42;7.40;99.90
51914;DHT22;37940;53.002;6.930;2023-04-02T10:41:24;7.50;99.90
51914;DHT22;37940;53.002;6.930;2023-04-02T10:50:32;8.10;99.90
51914;DHT22;37940;53.002;6.930;2023-04-02T10:53:19;8.50;99.90
51914;DHT22;37940;53.002;6.930;2023-04-02T10:56:10;8.40;99.90
51914;DHT22;37940;53.002;6.930;2023-04-02T10:58:42;8.40;99.90
51914;DHT22;37940;53.002;6.930;2023-04-02T11:01:24;8.40;99.90
51914;DHT22;37940;53.002;6.930;2023-04-02T11:03:56;8.30;99.90
51914;DHT22;37940;53.002;6.930;2023-04-02T11:06:26;8.20;99.90
51914;DHT22;37940;53.002;6.930;2023-04-02T11:08:57;8.20;99.90
51914;DHT22;37940;53.002;6.930;2023-04-02T11:11:30;8.90;99.90
51914;DHT22;37940;53.002;6.930;2023-04-02T11:14:01;8.20;99.90
51914;DHT22;37940;53.002;6.930;2023-04-02T11:16:30;7.90;99.90
51914;DHT22;37940;53.002;6.930;2023-04-02T11:21:43;7.80;99.90
51914;DHT22;37940;53.002;6.930;2023-04-02T11:34:59;8.60;99.90
51914;DHT22;37940;53.002;6.930;2023-04-02T11:37:32;8.80;99.90
51914;DHT22;37940;53.002;6.930;2023-04-02T11:42:32;8.90;99.90
51914;DHT22;37940;53.002;6.930;2023-04-02T11:50:43;8.40;99.90
51914;DHT22;37940;53.002;6.930;2023-04-02T11:55:47;8.10;99.90
51914;DHT22;37940;53.002;6.930;2023-04-02T12:04:22;8.80;99.90
51914;DHT22;37940;53.002;6.930;2023-04-02T12:07:11;9.00;99.90
51914;DHT22;37940;53.002;6.930;2023-04-02T12:09:52;9.10;99.90
51914;DHT22;37940;53.002;6.930;2023-04-02T12:12:32;9.20;99.90
51914;DHT22;37940;53.002;6.930;2023-04-02T12:14:59;9.10;99.90
51914;DHT22;37940;53.002;6.930;2023-04-02T12:22:45;8.80;99.90
51914;DHT22;37940;53.002;6.930;2023-04-02T12:25:31;8.80;99.90
51914;DHT22;37940;53.002;6.930;2023-04-02T12:28:16;8.90;99.90
51914;DHT22;37940;53.002;6.930;2023-04-02T12:30:44;8.90;99.90
51914;DHT22;37940;53.002;6.930;2023-04-02T12:33:28;8.90;99.90
51914;DHT22;37940;53.002;6.930;2023-04-02T12:35:59;8.80;99.90
51914;DHT22;37940;53.002;6.930;2023-04-02T12:38:31;8.90;99.90
51914;DHT22;37940;53.002;6.930;2023-04-02T12:41:00;9.00;99.90
51914;DHT22;37940;53.002;6.930;2023-04-02T12:43:32;9.20;99.90
51914;DHT22;37940;53.002;6.930;2023-04-02T12:46:07;9.00;99.90
51914;DHT22;37940;53.002;6.930;2023-04-02T12:48:37;9.30;99.90
51914;DHT22;37940;53.002;6.930;2023-04-02T12:51:03;9.20;99.90
51914;DHT22;37940;53.002;6.930;2023-04-02T12:53:37;9.40;99.90
51914;DHT22;37940;53.002;6.930;2023-04-02T12:56:04;9.60;99.90
51914;DHT22;37940;53.002;6.930;2023-04-02T12:58:37;9.60;99.90
51914;DHT22;37940;53.002;6.930;2023-04-02T13:01:17;9.30;99.90
51914;DHT22;37940;53.002;6.930;2023-04-02T13:04:08;8.80;99.90
51914;DHT22;37940;53.002;6.930;2023-04-02T13:06:38;8.90;99.90
51914;DHT22;37940;53.002;6.930;2023-04-02T13:09:23;9.20;99.90
51914;DHT22;37940;53.002;6.930;2023-04-02T13:11:50;8.40;99.90
51914;DHT22;37940;53.002;6.930;2023-04-02T13:14:17;9.10;99.90
51914;DHT22;37940;53.002;6.930;2023-04-02T13:16:45;9.10;99.90
51914;DHT22;37940;53.002;6.930;2023-04-02T13:21:45;9.30;99.90
51914;DHT22;37940;53.002;6.930;2023-04-02T13:24:19;9.40;99.90
51914;DHT22;37940;53.002;6.930;2023-04-02T13:26:46;9.60;99.90
51914;DHT22;37940;53.002;6.930;2023-04-02T13:29:38;9.50;99.90
51914;DHT22;37940;53.002;6.930;2023-04-02T13:32:10;9.30;99.90
51914;DHT22;37940;53.002;6.930;2023-04-02T13:34:37;9.10;99.90
51914;DHT22;37940;53.002;6.930;2023-04-02T13:37:02;9.20;99.90
51914;DHT22;37940;53.002;6.930;2023-04-02T13:39:28;9.20;99.90
51914;DHT22;37940;53.002;6.930;2023-04-02T13:42:00;9.20;99.90
51914;DHT22;37940;53.002;6.930;2023-04-02T13:44:29;9.20;99.90
51914;DHT22;37940;53.002;6.930;2023-04-02T13:46:56;9.30;99.90
51914;DHT22;37940;53.002;6.930;2023-04-02T13:49:23;9.30;99.90
51914;DHT22;37940;53.002;6.930;2023-04-02T13:51:52;9.30;99.90
51914;DHT22;37940;53.002;6.930;2023-04-02T13:56:56;9.40;99.90
51914;DHT22;37940;53.002;6.930;2023-04-02T13:59:22;9.40;99.90
51914;DHT22;37940;53.002;6.930;2023-04-02T14:01:50;9.40;99.90
51914;DHT22;37940;53.002;6.930;2023-04-02T14:04:21;9.40;99.90
51914;DHT22;37940;53.002;6.930;2023-04-02T14:07:10;9.40;99.90
51914;DHT22;37940;53.002;6.930;2023-04-02T14:10:12;9.50;99.90
51914;DHT22;37940;53.002;6.930;2023-04-02T14:27:16;9.60;99.90
51914;DHT22;37940;53.002;6.930;2023-04-02T14:29:50;9.60;99.90
51914;DHT22;37940;53.002;6.930;2023-04-02T14:35:33;9.50;99.90
51914;DHT22;37940;53.002;6.930;2023-04-02T14:38:24;9.30;99.90
51914;DHT22;37940;53.002;6.930;2023-04-02T14:43:53;9.20;99.90
51914;DHT22;37940;53.002;6.930;2023-04-02T14:46:27;9.20;99.90
51914;DHT22;37940;53.002;6.930;2023-04-02T14:52:12;9.30;99.90
51914;DHT22;37940;53.002;6.930;2023-04-02T14:54:51;9.30;99.90
51914;DHT22;37940;53.002;6.930;2023-04-02T14:57:46;9.50;99.90
51914;DHT22;37940;53.002;6.930;2023-04-02T15:00:31;9.40;99.90
51914;DHT22;37940;53.002;6.930;2023-04-02T15:03:21;9.40;99.90
51914;DHT22;37940;53.002;6.930;2023-04-02T15:05:59;9.40;99.90
51914;DHT22;37940;53.002;6.930;2023-04-02T15:08:43;9.40;99.90
51914;DHT22;37940;53.002;6.930;2023-04-02T15:11:19;9.40;99.90
51914;DHT22;37940;53.002;6.930;2023-04-02T15:16:34;9.40;99.90
51914;DHT22;37940;53.002;6.930;2023-04-02T15:19:02;9.40;99.90
51914;DHT22;37940;53.002;6.930;2023-04-02T15:27:21;9.40;99.90
51914;DHT22;37940;53.002;6.930;2023-04-02T15:46:22;9.30;99.90
51914;DHT22;37940;53.002;6.930;2023-04-02T16:00:32;9.20;99.90
51914;DHT22;37940;53.002;6.930;2023-04-02T16:11:11;9.10;99.90
51914;DHT22;37940;53.002;6.930;2023-04-02T16:13:39;9.10;99.90
51914;DHT22;37940;53.002;6.930;2023-04-02T16:18:47;8.90;99.90
51914;DHT22;37940;53.002;6.930;2023-04-02T16:21:19;8.90;99.90
51914;DHT22;37940;53.002;6.930;2023-04-02T16:23:45;8.80;99.90
51914;DHT22;37940;53.002;6.930;2023-04-02T16:56:39;8.00;99.90
51914;DHT22;37940;53.002;6.930;2023-04-02T17:02:11;7.80;99.90
51914;DHT22;37940;53.002;6.930;2023-04-02T17:10:36;7.50;99.90
51914;DHT22;37940;53.002;6.930;2023-04-02T17:13:17;7.50;99.90
51914;DHT22;37940;53.002;6.930;2023-04-02T17:15:50;7.40;99.90
51914;DHT22;37940;53.002;6.930;2023-04-02T17:18:20;7.30;99.90
51914;DHT22;37940;53.002;6.930;2023-04-02T17:20:49;7.50;99.90
51914;DHT22;37940;53.002;6.930;2023-04-02T17:23:17;7.20;99.90
51914;DHT22;37940;53.002;6.930;2023-04-02T17:25:57;7.10;99.90
51914;DHT22;37940;53.002;6.930;2023-04-02T17:28:29;7.10;99.90
51914;DHT22;37940;53.002;6.930;2023-04-02T17:33:42;6.90;99.90
51914;DHT22;37940;53.002;6.930;2023-04-02T17:36:33;6.90;99.90
51914;DHT22;37940;53.002;6.930;2023-04-02T17:39:22;6.80;99.90
51914;DHT22;37940;53.002;6.930;2023-04-02T17:42:05;6.70;99.90
51914;DHT22;37940;53.002;6.930;2023-04-02T17:47:26;6.50;99.90
51914;DHT22;37940;53.002;6.930;2023-04-02T18:00:55;6.20;99.90
51914;DHT22;37940;53.002;6.930;2023-04-02T18:04:17;6.00;99.90
51914;DHT22;37940;53.002;6.930;2023-04-02T18:28:36;5.30;99.90
51914;DHT22;37940;53.002;6.930;2023-04-02T18:34:07;5.10;99.90
51914;DHT22;37940;53.002;6.930;2023-04-02T18:37:03;5.00;99.90
51914;DHT22;37940;53.002;6.930;2023-04-02T18:42:33;5.00;99.90
51914;DHT22;37940;53.002;6.930;2023-04-02T18:50:53;4.70;99.90
51914;DHT22;37940;53.002;6.930;2023-04-02T18:53:22;4.70;99.90
51914;DHT22;37940;53.002;6.930;2023-04-02T18:56:10;4.60;99.90
51914;DHT22;37940;53.002;6.930;2023-04-02T19:01:36;4.60;99.90
51914;DHT22;37940;53.002;6.930;2023-04-02T19:04:07;4.50;99.90
51914;DHT22;37940;53.002;6.930;2023-04-02T19:06:47;4.40;99.90
51914;DHT22;37940;53.002;6.930;2023-04-02T19:09:33;4.80;99.90
51914;DHT22;37940;53.002;6.930;2023-04-02T19:12:01;4.50;99.90
51914;DHT22;37940;53.002;6.930;2023-04-02T19:14:28;4.70;99.90
51914;DHT22;37940;53.002;6.930;2023-04-02T19:17:13;4.30;99.90
51914;DHT22;37940;53.002;6.930;2023-04-02T19:22:49;4.20;99.90
51914;DHT22;37940;53.002;6.930;2023-04-02T19:38:57;4.00;99.90
51914;DHT22;37940;53.002;6.930;2023-04-02T19:41:33;3.90;99.90
51914;DHT22;37940;53.002;6.930;2023-04-02T19:44:01;3.90;99.90
51914;DHT22;37940;53.002;6.930;2023-04-02T19:46:27;4.30;99.90
51914;DHT22;37940;53.002;6.930;2023-04-02T19:49:26;4.00;99.90
51914;DHT22;37940;53.002;6.930;2023-04-02T19:51:53;3.80;99.90
51914;DHT22;37940;53.002;6.930;2023-04-02T19:54:18;3.70;99.90
51914;DHT22;37940;53.002;6.930;2023-04-02T19:56:45;4.40;99.90
51914;DHT22;37940;53.002;6.930;2023-04-02T19:59:10;3.70;99.90
51914;DHT22;37940;53.002;6.930;2023-04-02T20:01:37;4.50;99.90
51914;DHT22;37940;53.002;6.930;2023-04-02T20:04:03;3.70;99.90
51914;DHT22;37940;53.002;6.930;2023-04-02T20:06:30;3.50;99.90
51914;DHT22;37940;53.002;6.930;2023-04-02T20:08:56;4.50;99.90
51914;DHT22;37940;53.002;6.930;2023-04-02T20:11:23;3.50;99.90
51914;DHT22;37940;53.002;6.930;2023-04-02T20:13:51;3.40;99.90
51914;DHT22;37940;53.002;6.930;2023-04-02T20:16:17;3.40;99.90
51914;DHT22;37940;53.002;6.930;2023-04-02T20:18:43;3.80;99.90
51914;DHT22;37940;53.002;6.930;2023-04-02T20:21:09;3.30;99.90
51914;DHT22;37940;53.002;6.930;2023-04-02T20:23:35;3.40;99.90
51914;DHT22;37940;53.002;6.930;2023-04-02T20:26:02;3.80;99.90
51914;DHT22;37940;53.002;6.930;2023-04-02T20:28:29;3.40;99.90
51914;DHT22;37940;53.002;6.930;2023-04-02T20:31:14;3.40;99.90
51914;DHT22;37940;53.002;6.930;2023-04-02T20:33:40;3.20;99.90
51914;DHT22;37940;53.002;6.930;2023-04-02T20:36:08;3.60;99.90
51914;DHT22;37940;53.002;6.930;2023-04-02T20:38:35;2.90;99.90
51914;DHT22;37940;53.002;6.930;2023-04-02T20:41:03;3.80;99.90
51914;DHT22;37940;53.002;6.930;2023-04-02T20:43:30;2.80;99.90
51914;DHT22;37940;53.002;6.930;2023-04-02T20:46:00;2.70;99.90
51914;DHT22;37940;53.002;6.930;2023-04-02T20:48:28;3.30;99.90
51914;DHT22;37940;53.002;6.930;2023-04-02T20:50:58;2.60;99.90
51914;DHT22;37940;53.002;6.930;2023-04-02T20:53:24;2.50;99.90
51914;DHT22;37940;53.002;6.930;2023-04-02T20:55:50;2.50;99.90
51914;DHT22;37940;53.002;6.930;2023-04-02T20:58:18;3.60;99.90
51914;DHT22;37940;53.002;6.930;2023-04-02T21:00:44;2.70;99.90
51914;DHT22;37940;53.002;6.930;2023-04-02T21:03:10;3.50;99.90
51914;DHT22;37940;53.002;6.930;2023-04-02T21:05:43;2.50;99.90
51914;DHT22;37940;53.002;6.930;2023-04-02T21:08:09;2.60;99.90
51914;DHT22;37940;53.002;6.930;2023-04-02T21:10:35;2.60;99.90
51914;DHT22;37940;53.002;6.930;2023-04-02T21:13:01;3.10;99.90
51914;DHT22;37940;53.002;6.930;2023-04-02T21:15:26;2.60;99.90
51914;DHT22;37940;53.002;6.930;2023-04-02T21:17:52;2.80;99.90
51914;DHT22;37940;53.002;6.930;2023-04-02T21:20:18;2.50;99.90
51914;DHT22;37940;53.002;6.930;2023-04-02T21:22:43;2.50;99.90
51914;DHT22;37940;53.002;6.930;2023-04-02T21:25:09;3.10;99.90
51914;DHT22;37940;53.002;6.930;2023-04-02T21:27:35;2.40;99.90
51914;DHT22;37940;53.002;6.930;2023-04-02T21:30:01;2.30;99.90
51914;DHT22;37940;53.002;6.930;2023-04-02T21:32:27;2.30;99.90
51914;DHT22;37940;53.002;6.930;2023-04-02T21:34:52;2.70;99.90
51914;DHT22;37940;53.002;6.930;2023-04-02T21:37:19;3.30;99.90
51914;DHT22;37940;53.002;6.930;2023-04-02T21:39:45;3.10;99.90
51914;DHT22;37940;53.002;6.930;2023-04-02T21:42:11;2.30;99.90
51914;DHT22;37940;53.002;6.930;2023-04-02T21:44:38;2.30;99.90
51914;DHT22;37940;53.002;6.930;2023-04-02T21:47:04;3.30;99.90
51914;DHT22;37940;53.002;6.930;2023-04-02T21:49:29;3.30;99.90
51914;DHT22;37940;53.002;6.930;2023-04-02T21:51:55;2.20;99.90
51914;DHT22;37940;53.002;6.930;2023-04-02T21:54:21;2.20;99.90
51914;DHT22;37940;53.002;6.930;2023-04-02T21:56:47;2.60;99.90
51914;DHT22;37940;53.002;6.930;2023-04-02T21:59:16;2.90;99.90
51914;DHT22;37940;53.002;6.930;2023-04-02T22:01:44;3.30;99.90